Time;durP1;ratioP1;P1;durP2;ratioP2;P2;SDS_P1;SDS_P2;PMS_P1;PMS_P2;Temp;Humidity;BMP_temperature;BMP_pressure;BME280_temperature;BME280_humidity;BME280_pressure;Samples;Min_cycle;Max_cycle;Signal;HPM_P1;HPM_P2
2023/01/02 00:02:03;;;;;;;;;;;;;;;;;;4978573;28;5084;-59
2023/01/02 00:04:28;;;;;;;;;;;;;;;;;;4988117;28;1548;-58
2023/01/02 00:06:54;;;;;;;;;;;;;;;;;;4984261;28;5237;-58
2023/01/02 00:09:19;;;;;;;;;;;;;;;;;;4982703;28;5079;-59
2023/01/02 00:11:44;;;;;;;;;;;;;;;;;;4983808;28;4521;-59
2023/01/02 00:14:09;;;;;;;;;;;;;;;;;;4982054;28;5227;-59
2023/01/02 00:16:35;;;;;;;;;;;;;;;;;;4987842;28;3500;-59
2023/01/02 00:19:00;;;;;;;;;;;;;;;;;;4982413;28;5106;-58
2023/01/02 00:21:25;;;;;;;;;;;;;;;;;;4980651;28;5119;-58
2023/01/02 00:23:50;;;;;;;;;;;;;;;;;;4988124;28;4511;-58
2023/01/02 00:26:16;;;;;;;;;;;;;;;;;;4983827;28;4727;-59
2023/01/02 00:28:41;;;;;;;;;;;;;;;;;;4986097;28;3292;-59
2023/01/02 00:31:07;;;;;;;;;;;;;;;;;;4988676;28;4980;-59
2023/01/02 00:33:33;;;;;;;;;;;;;;;;;;4988576;28;5277;-58
2023/01/02 00:36:01;;;;;;;;;;;;;;;;;;4984167;28;4992;-58
2023/01/02 00:38:27;;;;;;;;;;;;;;;;;;4985272;28;5108;-58
2023/01/02 00:40:52;;;;;;;;;;;;;;;;;;4990566;28;2039;-58
2023/01/02 00:43:17;;;;;;;;;;;;;;;;;;4991413;28;4828;-58
2023/01/02 00:45:42;;;;;;;;;;;;;;;;;;4989078;28;5701;-58
2023/01/02 00:48:08;;;;;;;;;;;;;;;;;;4984067;28;4601;-59
2023/01/02 00:50:33;;;;;;;;;;;;;;;;;;4983227;28;4510;-59
2023/01/02 00:52:58;;;;;;;;;;;;;;;;;;4985407;28;5653;-58
2023/01/02 00:55:23;;;;;;;;;;;;;;;;;;4989471;28;3155;-59
2023/01/02 00:57:49;;;;;;;;;;;;;;;;;;4988814;28;5290;-59
2023/01/02 01:00:14;;;;;;;;;;;;;;;;;;4985875;28;5165;-59
2023/01/02 01:02:39;;;;;;;;;;;;;;;;;;4986050;28;4555;-59
2023/01/02 01:05:05;;;;;;;;;;;;;;;;;;4983034;28;4493;-59
2023/01/02 01:07:30;;;;;;;;;;;;;;;;;;4980622;28;3479;-59
2023/01/02 01:09:55;;;;;;;;;;;;;;;;;;4988780;28;5104;-59
2023/01/02 01:12:21;;;;;;;;;;;;;;;;;;4981652;28;4493;-59
2023/01/02 01:14:46;;;;;;;;;;;;;;;;;;4984887;28;5148;-59
2023/01/02 01:17:11;;;;;;;;;;;;;;;;;;4985148;28;5075;-59
2023/01/02 01:19:36;;;;;;;;;;;;;;;;;;4986545;28;4563;-59
2023/01/02 01:22:01;;;;;;;;;;;;;;;;;;4988758;28;4594;-59
2023/01/02 01:24:27;;;;;;;;;;;;;;;;;;4984472;28;5017;-59
2023/01/02 01:26:52;;;;;;;;;;;;;;;;;;4986267;28;5093;-58
2023/01/02 01:29:18;;;;;;;;;;;;;;;;;;4987028;28;5126;-59
2023/01/02 01:31:43;;;;;;;;;;;;;;;;;;4984015;28;3179;-59
2023/01/02 01:34:10;;;;;;;;;;;;;;;;;;5001738;28;5189;-59
2023/01/02 01:36:35;;;;;;;;;;;;;;;;;;4982242;28;5223;-59
2023/01/02 01:39:01;;;;;;;;;;;;;;;;;;4981583;28;5082;-59
2023/01/02 01:41:26;;;;;;;;;;;;;;;;;;4987240;28;5078;-59
2023/01/02 01:43:55;;;;;;;;;;;;;;;;;;4986113;28;3355;-59
2023/01/02 01:46:22;;;;;;;;;;;;;;;;;;4987065;28;5076;-58
2023/01/02 01:48:48;;;;;;;;;;;;;;;;;;4970906;28;5070;-58
2023/01/02 01:51:13;;;;;;;;;;;;;;;;;;4988062;28;4781;-58
2023/01/02 01:53:39;;;;;;;;;;;;;;;;;;4988087;28;5174;-58
2023/01/02 01:56:05;;;;;;;;;;;;;;;;;;4979766;28;5198;-58
2023/01/02 01:58:48;;;;;;;;;;;;;;;;;;4986899;28;3334;-58
2023/01/02 02:01:13;;;;;;;;;;;;;;;;;;4980220;28;4846;-59
2023/01/02 02:03:39;;;;;;;;;;;;;;;;;;4971711;28;4920;-60
2023/01/02 02:06:04;;;;;;;;;;;;;;;;;;4989836;28;4677;-59
2023/01/02 02:08:29;;;;;;;;;;;;;;;;;;4983781;28;4577;-58
2023/01/02 02:10:55;;;;;;;;;;;;;;;;;;4989255;28;3201;-59
2023/01/02 02:13:20;;;;;;;;;;;;;;;;;;4982730;28;4985;-59
2023/01/02 02:15:58;;;;;;;;;;;;;;;;;;4988441;28;5646;-59
2023/01/02 02:18:32;;;;;;;;;;;;;;;;;;4989496;28;4442;-59
2023/01/02 02:21:00;;;;;;;;;;;;;;;;;;4985717;28;5060;-59
2023/01/02 02:23:28;;;;;;;;;;;;;;;;;;5001078;28;4739;-58
2023/01/02 02:26:12;;;;;;;;;;;;;;;;;;4988813;28;1308;-59
2023/01/02 02:28:56;;;;;;;;;;;;;;;;;;5005849;28;4946;-59
2023/01/02 02:31:33;;;;;;;;;;;;;;;;;;4997226;28;4572;-60
2023/01/02 02:34:24;;;;;;;;;;;;;;;;;;5006737;28;5067;-59
2023/01/02 02:37:10;;;;;;;;;;;;;;;;;;4984454;28;4981;-59
2023/01/02 02:39:45;;;;;;;;;;;;;;;;;;4990065;28;4490;-60
2023/01/02 02:42:13;;;;;;;;;;;;;;;;;;5000884;28;4457;-60
2023/01/02 02:44:38;;;;;;;;;;;;;;;;;;5006496;28;4934;-59
2023/01/02 02:47:08;;;;;;;;;;;;;;;;;;5021300;28;5133;-59
2023/01/02 02:49:55;;;;;;;;;;;;;;;;;;5002106;28;1183;-60
2023/01/02 02:52:33;;;;;;;;;;;;;;;;;;5001787;28;4819;-59
2023/01/02 02:55:04;;;;;;;;;;;;;;;;;;5000247;28;5303;-59
2023/01/02 02:57:29;;;;;;;;;;;;;;;;;;5003903;28;6031;-60
2023/01/02 02:59:55;;;;;;;;;;;;;;;;;;4994949;28;5140;-60
2023/01/02 03:02:20;;;;;;;;;;;;;;;;;;4983762;28;4867;-55
2023/01/02 03:04:46;;;;;;;;;;;;;;;;;;4988075;28;2264;-60
2023/01/02 03:07:20;;;;;;;;;;;;;;;;;;4987881;28;4449;-58
2023/01/02 03:09:49;;;;;;;;;;;;;;;;;;4987794;28;4949;-59
2023/01/02 03:12:17;;;;;;;;;;;;;;;;;;4982123;28;4582;-59
2023/01/02 03:14:44;;;;;;;;;;;;;;;;;;4991074;28;5010;-59
2023/01/02 03:17:18;;;;;;;;;;;;;;;;;;5001180;28;5087;-59
2023/01/02 03:19:44;;;;;;;;;;;;;;;;;;4987462;28;4758;-59
2023/01/02 03:22:14;;;;;;;;;;;;;;;;;;4970798;28;5506;-59
2023/01/02 03:24:40;;;;;;;;;;;;;;;;;;5000825;28;5049;-59
2023/01/02 03:27:05;;;;;;;;;;;;;;;;;;4998592;28;4756;-59
2023/01/02 03:29:36;;;;;;;;;;;;;;;;;;4980580;28;5140;-59
2023/01/02 03:32:01;;;;;;;;;;;;;;;;;;4988350;28;4524;-58
2023/01/02 03:34:27;;;;;;;;;;;;;;;;;;4987275;28;1300;-58
2023/01/02 03:36:53;;;;;;;;;;;;;;;;;;4996486;28;5192;-59
2023/01/02 03:39:18;;;;;;;;;;;;;;;;;;5009359;28;5074;-59
2023/01/02 03:41:50;;;;;;;;;;;;;;;;;;5005919;28;5137;-59
2023/01/02 03:44:15;;;;;;;;;;;;;;;;;;5006176;28;5081;-59
2023/01/02 03:46:51;;;;;;;;;;;;;;;;;;5004311;28;3371;-59
2023/01/02 03:49:17;;;;;;;;;;;;;;;;;;5000328;28;4402;-59
2023/01/02 03:51:43;;;;;;;;;;;;;;;;;;5005742;28;4988;-59
2023/01/02 03:54:08;;;;;;;;;;;;;;;;;;5005205;28;4939;-59
2023/01/02 03:56:52;;;;;;;;;;;;;;;;;;5002654;28;5065;-60
2023/01/02 03:59:36;;;;;;;;;;;;;;;;;;5004327;28;4543;-60
2023/01/02 04:02:04;;;;;;;;;;;;;;;;;;5005528;28;5166;-59
2023/01/02 04:04:38;;;;;;;;;;;;;;;;;;5007697;28;3251;-59
2023/01/02 04:07:05;;;;;;;;;;;;;;;;;;5007410;28;4971;-59
2023/01/02 04:09:31;;;;;;;;;;;;;;;;;;5009873;28;4655;-59
2023/01/02 04:12:04;;;;;;;;;;;;;;;;;;5009941;28;4663;-59
2023/01/02 04:14:33;;;;;;;;;;;;;;;;;;5008777;28;5313;-59
2023/01/02 04:16:59;;;;;;;;;;;;;;;;;;5005018;28;5086;-58
2023/01/02 04:19:26;;;;;;;;;;;;;;;;;;5007159;28;4483;-59
2023/01/02 04:21:52;;;;;;;;;;;;;;;;;;5003083;28;5018;-59
2023/01/02 04:24:27;;;;;;;;;;;;;;;;;;5002576;28;4925;-59
2023/01/02 04:26:52;;;;;;;;;;;;;;;;;;5004269;28;5131;-59
2023/01/02 04:29:17;;;;;;;;;;;;;;;;;;5008539;28;5680;-60
2023/01/02 04:31:44;;;;;;;;;;;;;;;;;;5007936;28;3198;-60
2023/01/02 04:34:10;;;;;;;;;;;;;;;;;;5006528;28;5084;-60
2023/01/02 04:36:38;;;;;;;;;;;;;;;;;;5009971;28;5033;-60
2023/01/02 04:39:04;;;;;;;;;;;;;;;;;;5007332;28;5071;-60
2023/01/02 04:41:29;;;;;;;;;;;;;;;;;;5004480;28;4437;-58
2023/01/02 04:43:54;;;;;;;;;;;;;;;;;;5008123;28;1295;-58
2023/01/02 04:46:20;;;;;;;;;;;;;;;;;;4998860;28;5175;-58
2023/01/02 04:48:45;;;;;;;;;;;;;;;;;;5007412;28;4991;-58
2023/01/02 04:51:10;;;;;;;;;;;;;;;;;;5009000;28;5002;-58
2023/01/02 04:53:36;;;;;;;;;;;;;;;;;;5011071;28;4983;-58
2023/01/02 04:56:01;;;;;;;;;;;;;;;;;;5009769;28;5044;-58
2023/01/02 04:58:26;;;;;;;;;;;;;;;;;;5010094;28;1166;-58
2023/01/02 05:00:52;;;;;;;;;;;;;;;;;;5006970;28;4561;-59
2023/01/02 05:03:17;;;;;;;;;;;;;;;;;;5006475;28;4988;-58
2023/01/02 05:05:42;;;;;;;;;;;;;;;;;;5002622;28;5002;-58
2023/01/02 05:08:08;;;;;;;;;;;;;;;;;;5007539;28;5050;-58
2023/01/02 05:10:33;;;;;;;;;;;;;;;;;;5011093;28;1229;-58
2023/01/02 05:12:58;;;;;;;;;;;;;;;;;;5007364;28;4933;-59
2023/01/02 05:15:24;;;;;;;;;;;;;;;;;;4991767;28;4535;-58
2023/01/02 05:17:49;;;;;;;;;;;;;;;;;;4983285;28;4644;-58
2023/01/02 05:20:14;;;;;;;;;;;;;;;;;;4989730;28;5001;-59
2023/01/02 05:25:24;;;;;;;;;;;;;;;;;;4988639;28;4793;-58
2023/01/02 05:27:53;;;;;;;;;;;;;;;;;;4988201;28;5133;-58
2023/01/02 05:30:18;;;;;;;;;;;;;;;;;;4990400;28;5182;-59
2023/01/02 05:32:43;;;;;;;;;;;;;;;;;;4987574;28;5143;-59
2023/01/02 05:35:09;;;;;;;;;;;;;;;;;;4987517;28;5161;-59
2023/01/02 05:37:34;;;;;;;;;;;;;;;;;;4980832;28;3250;-59
2023/01/02 05:39:59;;;;;;;;;;;;;;;;;;4984990;28;5110;-58
2023/01/02 05:42:24;;;;;;;;;;;;;;;;;;4988328;28;5036;-58
2023/01/02 05:44:51;;;;;;;;;;;;;;;;;;4986620;28;5070;-58
2023/01/02 05:47:16;;;;;;;;;;;;;;;;;;4987980;28;4869;-58
2023/01/02 05:49:41;;;;;;;;;;;;;;;;;;4988814;28;1118;-58
2023/01/02 05:52:07;;;;;;;;;;;;;;;;;;4988615;28;4433;-59
2023/01/02 05:54:32;;;;;;;;;;;;;;;;;;4980514;28;4497;-59
2023/01/02 05:56:57;;;;;;;;;;;;;;;;;;4993251;28;4837;-58
2023/01/02 05:59:22;;;;;;;;;;;;;;;;;;5007455;28;5090;-59
2023/01/02 06:01:47;;;;;;;;;;;;;;;;;;4987245;28;3263;-58
2023/01/02 06:04:13;;;;;;;;;;;;;;;;;;4988283;28;4998;-58
2023/01/02 06:06:38;;;;;;;;;;;;;;;;;;4989344;28;4619;-59
2023/01/02 06:09:04;;;;;;;;;;;;;;;;;;4999425;28;4471;-59
2023/01/02 06:11:29;;;;;;;;;;;;;;;;;;4996993;28;5146;-59
2023/01/02 06:13:54;;;;;;;;;;;;;;;;;;4986877;28;1368;-59
2023/01/02 06:16:20;;;;;;;;;;;;;;;;;;4987827;28;4924;-59
2023/01/02 06:18:45;;;;;;;;;;;;;;;;;;4988056;28;4924;-59
2023/01/02 06:21:11;;;;;;;;;;;;;;;;;;4993639;28;5124;-59
2023/01/02 06:23:36;;;;;;;;;;;;;;;;;;5005722;28;4974;-58
2023/01/02 06:26:05;;;;;;;;;;;;;;;;;;5008990;28;5125;-59
2023/01/02 06:28:31;;;;;;;;;;;;;;;;;;5007217;28;1448;-58
2023/01/02 06:30:59;;;;;;;;;;;;;;;;;;5003319;28;4980;-59
2023/01/02 06:33:25;;;;;;;;;;;;;;;;;;5003614;28;5143;-58
2023/01/02 06:35:59;;;;;;;;;;;;;;;;;;5008298;28;5115;-59
2023/01/02 06:38:25;;;;;;;;;;;;;;;;;;5001774;28;4556;-59
2023/01/02 06:40:53;;;;;;;;;;;;;;;;;;5003693;28;3182;-58
2023/01/02 06:43:18;;;;;;;;;;;;;;;;;;4985676;28;5108;-58
2023/01/02 06:45:44;;;;;;;;;;;;;;;;;;5001271;28;5084;-59
2023/01/02 06:48:09;;;;;;;;;;;;;;;;;;5002589;28;4706;-58
2023/01/02 06:50:35;;;;;;;;;;;;;;;;;;5004796;28;4994;-59
2023/01/02 06:53:00;;;;;;;;;;;;;;;;;;5006142;28;4685;-58
2023/01/02 06:55:25;;;;;;;;;;;;;;;;;;5008983;28;1216;-59
2023/01/02 06:57:50;;;;;;;;;;;;;;;;;;5008380;28;4970;-58
2023/01/02 07:00:17;;;;;;;;;;;;;;;;;;5006781;28;5165;-58
2023/01/02 07:02:42;;;;;;;;;;;;;;;;;;5007587;28;5270;-58
2023/01/02 07:05:07;;;;;;;;;;;;;;;;;;5007330;28;5004;-58
2023/01/02 07:07:32;;;;;;;;;;;;;;;;;;5006243;28;3397;-59
2023/01/02 07:09:58;;;;;;;;;;;;;;;;;;5004462;28;4477;-58
2023/01/02 07:12:23;;;;;;;;;;;;;;;;;;5001550;28;5105;-59
2023/01/02 07:14:48;;;;;;;;;;;;;;;;;;4997188;28;4492;-58
2023/01/02 07:17:13;;;;;;;;;;;;;;;;;;5004990;28;5051;-59
2023/01/02 07:19:39;;;;;;;;;;;;;;;;;;5008302;28;4565;-59
2023/01/02 07:22:04;;;;;;;;;;;;;;;;;;5007716;28;4871;-59
2023/01/02 07:24:29;;;;;;;;;;;;;;;;;;5004947;28;5051;-59
2023/01/02 07:26:54;;;;;;;;;;;;;;;;;;5005182;28;4984;-59
2023/01/02 07:29:20;;;;;;;;;;;;;;;;;;5003900;28;5093;-58
2023/01/02 07:31:45;;;;;;;;;;;;;;;;;;5005349;28;3427;-59
2023/01/02 07:34:10;;;;;;;;;;;;;;;;;;5005330;28;5103;-59
2023/01/02 07:36:35;;;;;;;;;;;;;;;;;;5006159;28;5107;-59
2023/01/02 07:39:00;;;;;;;;;;;;;;;;;;4999426;28;5074;-59
2023/01/02 07:41:26;;;;;;;;;;;;;;;;;;5007228;28;5102;-59
2023/01/02 07:43:52;;;;;;;;;;;;;;;;;;5006226;28;3413;-59
2023/01/02 07:46:18;;;;;;;;;;;;;;;;;;5007013;28;5015;-59
2023/01/02 07:48:43;;;;;;;;;;;;;;;;;;5011795;28;4947;-59
2023/01/02 07:51:08;;;;;;;;;;;;;;;;;;5008622;28;5197;-59
2023/01/02 07:53:34;;;;;;;;;;;;;;;;;;5005859;28;4896;-59
2023/01/02 07:55:59;;;;;;;;;;;;;;;;;;5009970;28;5020;-59
2023/01/02 07:58:24;;;;;;;;;;;;;;;;;;5011954;28;1281;-58
2023/01/02 08:00:49;;;;;;;;;;;;;;;;;;5010831;28;5020;-58
2023/01/02 08:03:15;;;;;;;;;;;;;;;;;;5000736;28;5067;-58
2023/01/02 08:05:40;;;;;;;;;;;;;;;;;;5008210;28;4914;-59
2023/01/02 08:08:05;;;;;;;;;;;;;;;;;;5007683;28;5045;-58
2023/01/02 08:10:31;;;;;;;;;;;;;;;;;;5010041;28;3276;-59
2023/01/02 08:12:56;;;;;;;;;;;;;;;;;;5007013;28;4958;-59
2023/01/02 08:15:22;;;;;;;;;;;;;;;;;;5004453;28;5359;-58
2023/01/02 08:17:47;;;;;;;;;;;;;;;;;;5001659;28;5078;-59
2023/01/02 08:20:12;;;;;;;;;;;;;;;;;;5020276;28;4659;-59
2023/01/02 08:22:38;;;;;;;;;;;;;;;;;;5005877;28;3336;-59
2023/01/02 08:25:03;;;;;;;;;;;;;;;;;;5011180;28;5191;-59
2023/01/02 08:27:28;;;;;;;;;;;;;;;;;;5002248;28;5518;-58
2023/01/02 08:29:53;;;;;;;;;;;;;;;;;;5010125;28;5018;-58
2023/01/02 08:32:19;;;;;;;;;;;;;;;;;;5005465;28;5111;-58
2023/01/02 08:34:44;;;;;;;;;;;;;;;;;;5011069;28;1475;-58
2023/01/02 08:37:09;;;;;;;;;;;;;;;;;;5008674;28;4909;-58
2023/01/02 08:39:34;;;;;;;;;;;;;;;;;;5008166;28;4523;-57
2023/01/02 08:42:00;;;;;;;;;;;;;;;;;;5005193;28;5151;-58
2023/01/02 08:44:25;;;;;;;;;;;;;;;;;;5010886;28;5004;-58
2023/01/02 08:46:50;;;;;;;;;;;;;;;;;;5009123;28;3244;-57
2023/01/02 08:49:15;;;;;;;;;;;;;;;;;;5009997;28;4989;-63
2023/01/02 08:51:41;;;;;;;;;;;;;;;;;;5007165;28;4768;-62
2023/01/02 08:54:06;;;;;;;;;;;;;;;;;;5007380;28;5093;-60
2023/01/02 08:56:31;;;;;;;;;;;;;;;;;;5000238;28;5232;-60
2023/01/02 08:58:57;;;;;;;;;;;;;;;;;;4997849;28;3442;-60
2023/01/02 09:01:23;;;;;;;;;;;;;;;;;;5009277;28;5164;-59
2023/01/02 09:03:48;;;;;;;;;;;;;;;;;;5002652;28;5133;-61
2023/01/02 09:06:13;;;;;;;;;;;;;;;;;;5009021;28;5150;-59
2023/01/02 09:08:39;;;;;;;;;;;;;;;;;;5002588;28;5106;-59
2023/01/02 09:11:14;;;;;;;;;;;;;;;;;;5005516;28;5213;-60
2023/01/02 09:13:39;;;;;;;;;;;;;;;;;;5001210;28;3513;-60
2023/01/02 09:16:05;;;;;;;;;;;;;;;;;;5002021;28;4916;-60
2023/01/02 09:18:30;;;;;;;;;;;;;;;;;;5007159;28;5120;-57
2023/01/02 09:20:55;;;;;;;;;;;;;;;;;;5005996;28;4529;-59
2023/01/02 09:23:20;;;;;;;;;;;;;;;;;;4996174;28;4998;-57
2023/01/02 09:25:45;;;;;;;;;;;;;;;;;;5001372;28;3657;-59
2023/01/02 09:28:11;;;;;;;;;;;;;;;;;;5004925;28;5078;-58
2023/01/02 09:30:36;;;;;;;;;;;;;;;;;;5009477;28;5017;-59
2023/01/02 09:33:01;;;;;;;;;;;;;;;;;;5005025;28;4981;-61
2023/01/02 09:35:26;;;;;;;;;;;;;;;;;;4996230;28;5089;-62
2023/01/02 09:37:52;;;;;;;;;;;;;;;;;;5008855;28;3704;-61
2023/01/02 09:40:17;;;;;;;;;;;;;;;;;;5004415;28;5148;-60
2023/01/02 09:42:42;;;;;;;;;;;;;;;;;;5007058;28;5065;-61
2023/01/02 09:45:08;;;;;;;;;;;;;;;;;;4999945;28;5113;-60
2023/01/02 09:47:33;;;;;;;;;;;;;;;;;;5004405;28;5160;-60
2023/01/02 09:50:02;;;;;;;;;;;;;;;;;;5006209;28;5098;-61
2023/01/02 09:52:29;;;;;;;;;;;;;;;;;;5003323;28;3464;-60
2023/01/02 09:54:54;;;;;;;;;;;;;;;;;;5011660;28;4880;-63
2023/01/02 09:57:26;;;;;;;;;;;;;;;;;;4997041;28;4653;-61
2023/01/02 10:00:15;;;;;;;;;;;;;;;;;;5001216;28;4800;-56
2023/01/02 10:02:43;;;;;;;;;;;;;;;;;;5015171;28;4535;-57
2023/01/02 10:05:44;;;;;;;;;;;;;;;;;;5005450;28;4494;-62
2023/01/02 10:08:12;;;;;;;;;;;;;;;;;;4948938;28;4907;-62
2023/01/02 10:10:41;;;;;;;;;;;;;;;;;;4989774;28;3513;-61
2023/01/02 10:13:12;;;;;;;;;;;;;;;;;;5003739;28;4880;-60
2023/01/02 10:15:38;;;;;;;;;;;;;;;;;;4996912;28;5042;-60
2023/01/02 10:18:08;;;;;;;;;;;;;;;;;;5003847;28;4771;-60
2023/01/02 10:20:38;;;;;;;;;;;;;;;;;;5002549;28;5403;-60
2023/01/02 10:23:08;;;;;;;;;;;;;;;;;;5005156;28;5139;-60
2023/01/02 10:25:35;;;;;;;;;;;;;;;;;;5001658;28;3480;-63
2023/01/02 10:28:04;;;;;;;;;;;;;;;;;;4998814;28;5110;-63
2023/01/02 10:30:31;;;;;;;;;;;;;;;;;;5001734;28;5028;-62
2023/01/02 10:32:56;;;;;;;;;;;;;;;;;;4999265;28;4554;-61
2023/01/02 10:35:25;;;;;;;;;;;;;;;;;;4998194;28;5076;-61
2023/01/02 10:37:51;;;;;;;;;;;;;;;;;;5000965;28;3433;-61
2023/01/02 10:40:16;;;;;;;;;;;;;;;;;;5018067;28;5123;-60
2023/01/02 10:42:42;;;;;;;;;;;;;;;;;;5002402;28;5116;-60
2023/01/02 10:45:10;;;;;;;;;;;;;;;;;;5002446;28;4619;-61
2023/01/02 10:47:36;;;;;;;;;;;;;;;;;;5000874;28;5044;-60
2023/01/02 10:50:05;;;;;;;;;;;;;;;;;;5003604;28;5232;-60
2023/01/02 10:52:34;;;;;;;;;;;;;;;;;;5006016;28;3573;-60
2023/01/02 10:54:59;;;;;;;;;;;;;;;;;;5005533;28;4896;-60
2023/01/02 10:57:45;;;;;;;;;;;;;;;;;;5005649;28;5073;-60
2023/01/02 11:00:16;;;;;;;;;;;;;;;;;;4999130;28;4930;-60
2023/01/02 11:02:41;;;;;;;;;;;;;;;;;;5005908;28;5495;-60
2023/01/02 11:05:10;;;;;;;;;;;;;;;;;;5003562;28;5123;-60
2023/01/02 11:07:36;;;;;;;;;;;;;;;;;;4995729;28;3708;-63
2023/01/02 11:10:01;;;;;;;;;;;;;;;;;;5004895;28;5772;-63
2023/01/02 11:12:26;;;;;;;;;;;;;;;;;;4996130;28;4583;-61
2023/01/02 11:14:52;;;;;;;;;;;;;;;;;;4991697;28;4994;-62
2023/01/02 11:17:18;;;;;;;;;;;;;;;;;;4974549;28;5286;-62
2023/01/02 11:19:44;;;;;;;;;;;;;;;;;;4981572;28;4519;-62
2023/01/02 11:22:10;;;;;;;;;;;;;;;;;;4986635;28;5024;-63
2023/01/02 11:24:44;;;;;;;;;;;;;;;;;;4994962;28;4554;-63
2023/01/02 11:27:09;;;;;;;;;;;;;;;;;;4998045;28;5133;-62
2023/01/02 11:29:34;;;;;;;;;;;;;;;;;;5001854;28;5081;-62
2023/01/02 11:32:01;;;;;;;;;;;;;;;;;;4996521;28;4664;-65
2023/01/02 11:34:32;;;;;;;;;;;;;;;;;;4999580;28;3562;-62
2023/01/02 11:37:00;;;;;;;;;;;;;;;;;;4997655;28;5176;-61
2023/01/02 11:39:26;;;;;;;;;;;;;;;;;;4996983;28;4522;-63
2023/01/02 11:44:47;;;;;;;;;;;;;;;;;;5000996;28;5018;-63
2023/01/02 11:47:12;;;;;;;;;;;;;;;;;;5002258;28;4554;-61
2023/01/02 11:49:44;;;;;;;;;;;;;;;;;;5004048;28;3612;-60
2023/01/02 11:52:18;;;;;;;;;;;;;;;;;;5003868;28;5024;-60
2023/01/02 11:55:06;;;;;;;;;;;;;;;;;;5005604;28;5068;-61
2023/01/02 11:57:37;;;;;;;;;;;;;;;;;;4999369;28;4474;-61
2023/01/02 12:00:03;;;;;;;;;;;;;;;;;;5002671;28;4611;-61
2023/01/02 12:02:30;;;;;;;;;;;;;;;;;;5002546;28;5468;-61
2023/01/02 12:04:55;;;;;;;;;;;;;;;;;;4984398;28;3827;-59
2023/01/02 12:07:26;;;;;;;;;;;;;;;;;;4993050;28;4521;-60
2023/01/02 12:09:55;;;;;;;;;;;;;;;;;;4996636;28;5050;-60
2023/01/02 12:12:24;;;;;;;;;;;;;;;;;;4990672;28;4721;-60
2023/01/02 12:15:03;;;;;;;;;;;;;;;;;;5005767;28;5018;-62
2023/01/02 12:17:37;;;;;;;;;;;;;;;;;;5000819;28;4536;-60
2023/01/02 12:20:04;;;;;;;;;;;;;;;;;;5004469;28;4958;-66
2023/01/02 12:22:44;;;;;;;;;;;;;;;;;;5002258;28;3530;-60
2023/01/02 12:25:16;;;;;;;;;;;;;;;;;;4998575;28;4495;-61
2023/01/02 12:27:47;;;;;;;;;;;;;;;;;;5008435;28;4449;-60
2023/01/02 12:30:13;;;;;;;;;;;;;;;;;;5005782;28;4465;-62
2023/01/02 12:32:57;;;;;;;;;;;;;;;;;;5004641;28;5086;-61
2023/01/02 12:35:52;;;;;;;;;;;;;;;;;;5003550;28;5184;-67
2023/01/02 12:38:29;;;;;;;;;;;;;;;;;;4932057;28;5173;-62
2023/01/02 12:41:01;;;;;;;;;;;;;;;;;;5002086;28;3501;-61
2023/01/02 12:43:32;;;;;;;;;;;;;;;;;;4999933;28;4677;-60
2023/01/02 12:46:21;;;;;;;;;;;;;;;;;;4998281;28;4627;-60
2023/01/02 12:48:46;;;;;;;;;;;;;;;;;;5006215;28;4903;-62
2023/01/02 12:51:16;;;;;;;;;;;;;;;;;;5008019;28;4662;-60
2023/01/02 12:53:44;;;;;;;;;;;;;;;;;;5007977;28;5072;-66
2023/01/02 12:56:14;;;;;;;;;;;;;;;;;;5007638;28;4584;-65
2023/01/02 12:58:39;;;;;;;;;;;;;;;;;;5020911;28;1321;-68
2023/01/02 13:01:14;;;;;;;;;;;;;;;;;;5010605;28;5037;-59
2023/01/02 13:03:48;;;;;;;;;;;;;;;;;;5010224;28;4702;-66
2023/01/02 13:06:22;;;;;;;;;;;;;;;;;;5010372;28;5028;-60
2023/01/02 13:08:47;;;;;;;;;;;;;;;;;;5007463;28;5614;-63
2023/01/02 13:11:14;;;;;;;;;;;;;;;;;;5005703;28;5071;-62
2023/01/02 13:13:39;;;;;;;;;;;;;;;;;;5006327;28;3218;-62
2023/01/02 13:16:05;;;;;;;;;;;;;;;;;;4991441;28;5062;-62
2023/01/02 13:18:32;;;;;;;;;;;;;;;;;;4983591;28;4968;-61
2023/01/02 13:21:08;;;;;;;;;;;;;;;;;;4987783;28;4969;-60
2023/01/02 13:23:40;;;;;;;;;;;;;;;;;;4982446;28;5105;-60
2023/01/02 13:26:09;;;;;;;;;;;;;;;;;;4972923;28;5069;-60
2023/01/02 13:28:41;;;;;;;;;;;;;;;;;;4985778;28;3596;-65
2023/01/02 13:31:08;;;;;;;;;;;;;;;;;;5007420;28;4836;-61
2023/01/02 13:33:33;;;;;;;;;;;;;;;;;;5007399;28;4648;-62
2023/01/02 13:36:01;;;;;;;;;;;;;;;;;;4991001;28;5206;-62
2023/01/02 13:38:27;;;;;;;;;;;;;;;;;;4987739;28;4646;-60
2023/01/02 13:40:53;;;;;;;;;;;;;;;;;;4993759;28;1911;-62
2023/01/02 13:43:19;;;;;;;;;;;;;;;;;;4988208;28;5191;-61
2023/01/02 13:45:45;;;;;;;;;;;;;;;;;;4980146;28;5151;-61
2023/01/02 13:48:21;;;;;;;;;;;;;;;;;;4989335;28;4812;-65
2023/01/02 13:50:46;;;;;;;;;;;;;;;;;;4979047;28;4514;-60
2023/01/02 13:53:11;;;;;;;;;;;;;;;;;;4989557;28;4997;-60
2023/01/02 13:55:39;;;;;;;;;;;;;;;;;;4987252;28;1183;-62
2023/01/02 13:58:11;;;;;;;;;;;;;;;;;;4983574;28;5207;-61
2023/01/02 14:00:37;;;;;;;;;;;;;;;;;;4988083;28;4729;-61
2023/01/02 14:03:21;;;;;;;;;;;;;;;;;;4991916;28;5218;-63
2023/01/02 14:05:59;;;;;;;;;;;;;;;;;;4989011;28;4678;-60
2023/01/02 14:08:27;;;;;;;;;;;;;;;;;;4986718;28;5121;-61
2023/01/02 14:10:54;;;;;;;;;;;;;;;;;;4986463;28;3684;-59
2023/01/02 14:13:20;;;;;;;;;;;;;;;;;;4984000;28;4967;-60
2023/01/02 14:16:04;;;;;;;;;;;;;;;;;;4987208;28;4596;-61
2023/01/02 14:18:29;;;;;;;;;;;;;;;;;;4988295;28;4444;-60
2023/01/02 14:20:54;;;;;;;;;;;;;;;;;;4988910;28;4878;-63
2023/01/02 14:23:27;;;;;;;;;;;;;;;;;;4985175;28;5059;-60
2023/01/02 14:25:52;;;;;;;;;;;;;;;;;;4974176;28;1052;-61
2023/01/02 14:28:24;;;;;;;;;;;;;;;;;;4985875;28;4504;-62
2023/01/02 14:30:49;;;;;;;;;;;;;;;;;;4989159;28;5135;-61
2023/01/02 14:33:15;;;;;;;;;;;;;;;;;;4987023;28;5155;-62
2023/01/02 14:35:48;;;;;;;;;;;;;;;;;;4984865;28;5003;-61
2023/01/02 14:38:13;;;;;;;;;;;;;;;;;;4987697;28;4975;-61
2023/01/02 14:40:41;;;;;;;;;;;;;;;;;;4988861;28;1922;-60
2023/01/02 14:43:32;;;;;;;;;;;;;;;;;;4989660;28;5024;-61
2023/01/02 14:46:03;;;;;;;;;;;;;;;;;;4986407;28;5095;-61
2023/01/02 14:48:49;;;;;;;;;;;;;;;;;;4984485;28;4453;-60
2023/01/02 14:51:22;;;;;;;;;;;;;;;;;;4980097;28;5007;-59
2023/01/02 14:53:49;;;;;;;;;;;;;;;;;;4989847;28;4651;-62
2023/01/02 14:56:15;;;;;;;;;;;;;;;;;;4982312;28;5010;-62
2023/01/02 14:58:41;;;;;;;;;;;;;;;;;;4979351;28;1154;-63
2023/01/02 15:01:07;;;;;;;;;;;;;;;;;;4983915;28;4848;-61
2023/01/02 15:03:35;;;;;;;;;;;;;;;;;;4982884;28;5107;-60
2023/01/02 15:06:02;;;;;;;;;;;;;;;;;;4988039;28;5145;-61
2023/01/02 15:08:35;;;;;;;;;;;;;;;;;;4978795;28;5051;-62
2023/01/02 15:13:02;;;;;;;;;;;;;;;;;;4985372;28;4994;-61
2023/01/02 15:13:50;;;;;;;;;;;;;;;;;;4983433;28;1117;-62
2023/01/02 15:16:15;;;;;;;;;;;;;;;;;;4982117;28;5150;-62
2023/01/02 15:18:40;;;;;;;;;;;;;;;;;;4984340;28;4439;-67
2023/01/02 15:21:06;;;;;;;;;;;;;;;;;;4984023;28;5395;-61
2023/01/02 15:23:32;;;;;;;;;;;;;;;;;;4983954;28;5002;-62
2023/01/02 15:25:57;;;;;;;;;;;;;;;;;;4984476;28;3838;-63
2023/01/02 15:28:22;;;;;;;;;;;;;;;;;;4986224;28;4413;-64
2023/01/02 15:30:56;;;;;;;;;;;;;;;;;;5002617;28;5212;-59
2023/01/02 15:33:26;;;;;;;;;;;;;;;;;;4985319;28;5221;-64
2023/01/02 15:36:01;;;;;;;;;;;;;;;;;;4985957;28;4859;-61
2023/01/02 15:38:27;;;;;;;;;;;;;;;;;;4983769;28;4553;-62
2023/01/02 15:40:53;;;;;;;;;;;;;;;;;;4988331;28;1973;-60
2023/01/02 15:46:02;;;;;;;;;;;;;;;;;;4981805;28;5103;-62
2023/01/02 15:48:27;;;;;;;;;;;;;;;;;;4985453;28;4975;-64
2023/01/02 15:50:53;;;;;;;;;;;;;;;;;;4987893;28;4736;-62
2023/01/02 15:53:28;;;;;;;;;;;;;;;;;;4979196;28;5001;-61
2023/01/02 15:55:53;;;;;;;;;;;;;;;;;;4984982;28;3437;-60
2023/01/02 15:58:31;;;;;;;;;;;;;;;;;;4978348;28;4689;-63
2023/01/02 16:01:09;;;;;;;;;;;;;;;;;;4986320;28;5086;-62
2023/01/02 16:03:35;;;;;;;;;;;;;;;;;;4999833;28;4662;-60
2023/01/02 16:06:05;;;;;;;;;;;;;;;;;;4988554;28;5113;-60
2023/01/02 16:08:31;;;;;;;;;;;;;;;;;;4989096;28;5250;-60
2023/01/02 16:11:05;;;;;;;;;;;;;;;;;;4990117;28;3514;-62
2023/01/02 16:16:15;;;;;;;;;;;;;;;;;;5007818;28;4569;-60
2023/01/02 16:18:41;;;;;;;;;;;;;;;;;;5009249;28;5354;-60
2023/01/02 16:21:06;;;;;;;;;;;;;;;;;;5001312;28;5066;-59
2023/01/02 16:23:32;;;;;;;;;;;;;;;;;;5004099;28;5136;-60
2023/01/02 16:26:01;;;;;;;;;;;;;;;;;;4959167;28;4357;-62
2023/01/02 16:28:26;;;;;;;;;;;;;;;;;;4999175;28;4397;-61
2023/01/02 16:31:27;;;;;;;;;;;;;;;;;;4996051;28;5154;-66
2023/01/02 16:34:10;;;;;;;;;;;;;;;;;;4947206;28;5231;-65
2023/01/02 16:36:35;;;;;;;;;;;;;;;;;;4963696;28;5187;-64
2023/01/02 16:39:01;;;;;;;;;;;;;;;;;;4986022;28;5483;-66
2023/01/02 16:41:36;;;;;;;;;;;;;;;;;;4984622;28;5152;-64
2023/01/02 16:44:11;;;;;;;;;;;;;;;;;;4983773;28;5058;-63
2023/01/02 16:46:36;;;;;;;;;;;;;;;;;;4987021;28;3515;-62
2023/01/02 16:49:01;;;;;;;;;;;;;;;;;;4984375;28;5149;-66
2023/01/02 16:51:26;;;;;;;;;;;;;;;;;;4986661;28;5098;-66
2023/01/02 16:53:52;;;;;;;;;;;;;;;;;;4984844;28;5294;-66
2023/01/02 16:56:17;;;;;;;;;;;;;;;;;;4984419;28;5149;-66
2023/01/02 16:58:42;;;;;;;;;;;;;;;;;;4986693;28;3645;-66
2023/01/02 17:01:11;;;;;;;;;;;;;;;;;;4986121;28;4919;-66
2023/01/02 17:03:36;;;;;;;;;;;;;;;;;;4983216;28;4475;-60
2023/01/02 17:06:02;;;;;;;;;;;;;;;;;;4989705;28;4723;-60
2023/01/02 17:08:28;;;;;;;;;;;;;;;;;;5001753;28;4946;-59
2023/01/02 17:10:53;;;;;;;;;;;;;;;;;;4984475;28;3733;-61
2023/01/02 17:13:19;;;;;;;;;;;;;;;;;;4982364;28;5061;-59
2023/01/02 17:15:44;;;;;;;;;;;;;;;;;;4986906;28;5522;-59
2023/01/02 17:18:09;;;;;;;;;;;;;;;;;;4990407;28;4553;-60
2023/01/02 17:20:35;;;;;;;;;;;;;;;;;;4985613;28;4927;-60